createdAt,value
2018-10-12T00:00:48.716Z,99263.00
2018-10-12T00:03:20.816Z,99266.00
2018-10-12T00:05:52.798Z,99265.00
2018-10-12T00:08:24.570Z,99276.00
2018-10-12T00:10:56.953Z,99265.00
2018-10-12T00:13:28.913Z,99270.00
2018-10-12T00:16:00.769Z,99265.00
2018-10-12T00:18:32.709Z,99270.00
2018-10-12T00:21:05.063Z,99274.00
2018-10-12T00:23:39.840Z,99274.00
2018-10-12T00:26:11.621Z,99274.00
2018-10-12T00:28:43.570Z,99276.00
2018-10-12T00:31:15.453Z,99275.00
2018-10-12T00:33:47.420Z,99277.00
2018-10-12T00:36:19.363Z,99282.00
2018-10-12T00:38:51.405Z,99284.00
2018-10-12T00:41:23.529Z,99288.00
2018-10-12T00:43:55.792Z,99284.00
2018-10-12T00:46:27.622Z,99288.00
2018-10-12T00:49:01.424Z,99286.00
2018-10-12T00:51:33.330Z,99289.00
2018-10-12T00:54:05.760Z,99292.00
2018-10-12T00:56:38.569Z,99296.00
2018-10-12T00:59:10.835Z,99292.00
2018-10-12T01:01:42.655Z,99300.00
2018-10-12T01:04:14.496Z,99297.00
2018-10-12T01:06:49.449Z,99293.00
2018-10-12T01:09:21.702Z,99297.00
2018-10-12T01:12:09.130Z,99302.00
2018-10-12T01:14:41.537Z,99304.00
2018-10-12T01:17:13.822Z,99307.00
2018-10-12T01:19:46.284Z,99308.00
2018-10-12T01:22:18.323Z,99306.00
2018-10-12T01:24:50.170Z,99306.00
2018-10-12T01:27:22.585Z,99309.00
2018-10-12T01:29:54.848Z,99309.00
2018-10-12T01:32:32.665Z,99315.00
2018-10-12T01:35:04.688Z,99311.00
2018-10-12T01:37:36.710Z,99316.00
2018-10-12T01:40:12.904Z,99319.00
2018-10-12T01:45:21.152Z,99316.00
2018-10-12T01:47:54.159Z,99315.00
2018-10-12T01:50:26.057Z,99313.00
2018-10-12T01:52:57.949Z,99315.00
2018-10-12T01:55:30.615Z,99311.00
2018-10-12T01:58:02.733Z,99307.00
2018-10-12T02:00:35.161Z,99320.00
2018-10-12T02:03:08.081Z,99316.00
2018-10-12T02:05:40.056Z,99313.00
2018-10-12T02:08:12.188Z,99322.00
2018-10-12T02:10:44.064Z,99324.00
2018-10-12T02:13:16.312Z,99327.00
2018-10-12T02:15:48.604Z,99323.00
2018-10-12T02:18:21.840Z,99316.00
2018-10-12T02:20:53.851Z,99316.00
2018-10-12T02:23:25.528Z,99319.00
2018-10-12T02:25:57.525Z,99321.00
2018-10-12T02:28:29.556Z,99321.00
2018-10-12T02:31:03.092Z,99319.00
2018-10-12T02:33:35.392Z,99326.00
2018-10-12T02:36:07.564Z,99333.00
2018-10-12T02:38:40.081Z,99334.00
2018-10-12T02:41:12.443Z,99335.00
2018-10-12T02:43:44.378Z,99332.00
2018-10-12T02:46:17.012Z,99331.00
2018-10-12T02:48:49.726Z,99333.00
2018-10-12T02:51:21.682Z,99335.00
2018-10-12T02:53:54.418Z,99331.00
2018-10-12T02:56:26.938Z,99336.00
2018-10-12T02:58:58.761Z,99340.00
2018-10-12T03:01:31.214Z,99344.00
2018-10-12T03:06:39.496Z,99347.00
2018-10-12T03:09:12.557Z,99351.00
2018-10-12T03:11:44.301Z,99354.00
2018-10-12T03:16:52.821Z,99362.00
2018-10-12T03:19:24.804Z,99360.00
2018-10-12T03:21:56.774Z,99365.00
2018-10-12T03:24:29.164Z,99364.00
2018-10-12T03:27:01.537Z,99358.00
2018-10-12T03:29:33.648Z,99367.00
2018-10-12T03:32:06.823Z,99364.00
2018-10-12T03:34:38.755Z,99363.00
2018-10-12T03:37:18.229Z,99361.00
2018-10-12T03:39:50.239Z,99359.00
2018-10-12T03:42:26.297Z,99355.00
2018-10-12T03:44:58.236Z,99359.00
2018-10-12T03:47:30.463Z,99359.00
2018-10-12T03:50:02.664Z,99359.00
2018-10-12T03:52:35.573Z,99362.00
2018-10-12T03:55:07.762Z,99371.00
2018-10-12T03:57:40.069Z,99377.00
2018-10-12T04:00:12.146Z,99372.00
2018-10-12T04:02:44.482Z,99372.00
2018-10-12T04:05:16.690Z,99374.00
2018-10-12T04:07:48.682Z,99370.00
2018-10-12T04:10:21.355Z,99370.00
2018-10-12T04:12:54.260Z,99371.00
2018-10-12T04:15:27.223Z,99367.00
2018-10-12T04:17:59.160Z,99374.00
2018-10-12T04:20:30.839Z,99369.00
2018-10-12T04:23:02.747Z,99367.00
2018-10-12T04:25:34.809Z,99374.00
2018-10-12T04:28:06.834Z,99376.00
2018-10-12T04:30:38.895Z,99382.00
2018-10-12T04:33:11.291Z,99381.00
2018-10-12T04:35:43.560Z,99375.00
2018-10-12T04:38:15.487Z,99376.00
2018-10-12T04:41:06.901Z,99378.00
2018-10-12T04:43:38.755Z,99380.00
2018-10-12T04:46:14.211Z,99383.00
2018-10-12T04:48:48.264Z,99382.00
2018-10-12T04:51:31.902Z,99376.00
2018-10-12T04:56:41.106Z,99381.00
2018-10-12T04:59:13.171Z,99386.00
2018-10-12T05:01:45.885Z,99393.00
2018-10-12T05:04:17.790Z,99404.00
2018-10-12T05:06:49.684Z,99405.00
2018-10-12T05:09:21.800Z,99412.00
2018-10-12T05:14:29.580Z,99418.00
2018-10-12T05:17:01.476Z,99421.00
2018-10-12T05:19:33.717Z,99421.00
2018-10-12T05:22:06.520Z,99427.00
2018-10-12T05:27:15.323Z,99431.00
2018-10-12T05:29:47.626Z,99431.00
2018-10-12T05:34:57.246Z,99432.00
2018-10-12T05:37:29.081Z,99437.00
2018-10-12T05:42:36.611Z,99445.00
2018-10-12T05:45:08.271Z,99450.00
2018-10-12T05:47:40.075Z,99451.00
2018-10-12T05:52:48.711Z,99454.00
2018-10-12T05:55:20.748Z,99464.00
2018-10-12T05:57:52.701Z,99466.00
2018-10-12T06:00:24.594Z,99466.00
2018-10-12T06:02:56.721Z,99474.00
2018-10-12T06:05:28.722Z,99480.00
2018-10-12T06:08:00.660Z,99482.00
2018-10-12T06:10:32.662Z,99485.00
2018-10-12T06:13:04.373Z,99485.00
2018-10-12T06:15:36.141Z,99496.00
2018-10-12T06:18:10.433Z,99500.00
2018-10-12T06:20:43.595Z,99506.00
2018-10-12T06:23:20.311Z,99505.00
2018-10-12T06:25:52.922Z,99507.00
2018-10-12T06:28:24.689Z,99503.00
2018-10-12T06:30:57.208Z,99505.00
2018-10-12T06:33:30.096Z,99507.00
2018-10-12T06:36:02.534Z,99509.00
2018-10-12T06:38:34.629Z,99515.00
2018-10-12T06:41:06.460Z,99512.00
2018-10-12T06:43:38.448Z,99519.00
2018-10-12T06:46:10.188Z,99525.00
2018-10-12T06:48:42.593Z,99530.00
2018-10-12T06:51:14.490Z,99531.00
2018-10-12T06:53:46.678Z,99536.00
2018-10-12T06:56:18.834Z,99534.00
2018-10-12T06:58:50.862Z,99536.00
2018-10-12T07:01:23.545Z,99529.00
2018-10-12T07:03:56.125Z,99532.00
2018-10-12T07:06:28.515Z,99525.00
2018-10-12T07:09:03.910Z,99531.00
2018-10-12T07:11:36.075Z,99534.00
2018-10-12T07:14:07.868Z,99534.00
2018-10-12T07:16:42.431Z,99541.00
2018-10-12T07:19:14.545Z,99542.00
2018-10-12T07:21:46.338Z,99548.00
2018-10-12T07:24:18.104Z,99545.00
2018-10-12T07:26:49.914Z,99549.00
2018-10-12T07:29:21.646Z,99550.00
2018-10-12T07:31:53.892Z,99558.00
2018-10-12T07:34:25.577Z,99556.00
2018-10-12T07:36:58.299Z,99555.00
2018-10-12T07:39:30.107Z,99561.00
2018-10-12T07:42:01.928Z,99565.00
2018-10-12T07:44:34.834Z,99565.00
2018-10-12T07:47:06.942Z,99566.00
2018-10-12T07:49:38.974Z,99570.00
2018-10-12T07:52:10.969Z,99580.00
2018-10-12T07:54:43.079Z,99584.00
2018-10-12T07:57:16.139Z,99583.00
2018-10-12T07:59:47.979Z,99575.00
2018-10-12T08:02:19.683Z,99581.00
2018-10-12T08:04:51.491Z,99582.00
2018-10-12T08:07:23.219Z,99591.00
2018-10-12T08:09:55.673Z,99588.00
2018-10-12T08:12:28.019Z,99585.00
2018-10-12T08:14:59.953Z,99585.00
2018-10-12T08:17:32.253Z,99589.00
2018-10-12T08:20:06.053Z,99585.00
2018-10-12T08:22:38.771Z,99589.00
2018-10-12T08:25:11.611Z,99593.00
2018-10-12T08:30:20.518Z,99589.00
2018-10-12T08:32:53.120Z,99593.00
2018-10-12T08:35:25.720Z,99592.00
2018-10-12T08:37:57.879Z,99596.00
2018-10-12T08:40:29.488Z,99604.00
2018-10-12T08:43:01.559Z,99603.00
2018-10-12T08:45:33.323Z,99612.00
2018-10-12T08:48:05.116Z,99618.00
2018-10-12T08:50:40.710Z,99612.00
2018-10-12T08:53:16.975Z,99612.00
2018-10-12T08:55:49.346Z,99607.00
2018-10-12T08:58:21.319Z,99605.00
2018-10-12T09:00:53.121Z,99598.00
2018-10-12T09:03:24.847Z,99599.00
2018-10-12T09:05:56.747Z,99601.00
2018-10-12T09:08:28.461Z,99590.00
2018-10-12T09:11:00.162Z,99593.00
2018-10-12T09:13:32.538Z,99595.00
2018-10-12T09:16:04.166Z,99596.00
2018-10-12T09:18:35.782Z,99598.00
2018-10-12T09:21:08.171Z,99606.00
2018-10-12T09:23:40.111Z,99601.00
2018-10-12T09:26:12.326Z,99605.00
2018-10-12T09:28:43.966Z,99606.00
2018-10-12T09:31:17.130Z,99608.00
2018-10-12T09:33:48.738Z,99604.00
2018-10-12T09:36:20.990Z,99606.00
2018-10-12T09:38:53.241Z,99604.00
2018-10-12T09:41:26.749Z,99599.00
2018-10-12T09:43:58.610Z,99601.00
2018-10-12T09:46:30.402Z,99597.00
2018-10-12T09:49:02.354Z,99599.00
2018-10-12T09:51:34.340Z,99602.00
2018-10-12T09:54:06.516Z,99599.00
2018-10-12T09:56:39.293Z,99606.00
2018-10-12T09:59:10.987Z,99602.00
2018-10-12T10:01:48.013Z,99605.00
2018-10-12T10:04:35.382Z,99603.00
2018-10-12T10:07:07.055Z,99604.00
2018-10-12T10:09:39.714Z,99601.00
2018-10-12T10:12:12.260Z,99602.00
2018-10-12T10:14:44.016Z,99597.00
2018-10-12T10:17:15.745Z,99589.00
2018-10-12T10:19:47.621Z,99594.00
2018-10-12T10:22:19.741Z,99589.00
2018-10-12T10:27:27.093Z,99592.00
2018-10-12T10:29:59.445Z,99589.00
2018-10-12T10:32:31.396Z,99594.00
2018-10-12T10:35:02.783Z,99591.00
2018-10-12T10:37:34.776Z,99585.00
2018-10-12T10:40:07.255Z,99586.00
2018-10-12T10:42:46.963Z,99580.00
2018-10-12T10:45:18.407Z,99584.00
2018-10-12T10:47:51.327Z,99579.00
2018-10-12T10:52:58.748Z,99577.00
2018-10-12T10:55:30.166Z,99573.00
2018-10-12T10:58:02.311Z,99573.00
2018-10-12T11:00:34.153Z,99566.00
2018-10-12T11:03:06.679Z,99565.00
2018-10-12T11:05:38.067Z,99564.00
2018-10-12T11:08:10.441Z,99564.00
2018-10-12T11:10:42.159Z,99565.00
2018-10-12T11:13:14.240Z,99562.00
2018-10-12T11:15:46.318Z,99563.00
2018-10-12T11:18:18.217Z,99561.00
2018-10-12T11:20:50.241Z,99563.00
2018-10-12T11:23:22.352Z,99556.00
2018-10-12T11:25:54.249Z,99557.00
2018-10-12T11:28:26.500Z,99555.00
2018-10-12T11:30:58.256Z,99551.00
2018-10-12T11:33:31.683Z,99550.00
2018-10-12T11:36:03.446Z,99546.00
2018-10-12T11:38:35.318Z,99541.00
2018-10-12T11:41:07.383Z,99542.00
2018-10-12T11:43:40.922Z,99539.00
2018-10-12T11:46:12.630Z,99537.00
2018-10-12T11:51:20.508Z,99528.00
2018-10-12T11:53:52.014Z,99530.00
2018-10-12T11:56:24.107Z,99531.00
2018-10-12T11:58:55.651Z,99520.00
2018-10-12T12:01:27.621Z,99522.00
2018-10-12T12:03:59.453Z,99522.00
2018-10-12T12:06:31.444Z,99518.00
2018-10-12T12:09:03.525Z,99515.00
2018-10-12T12:11:35.796Z,99513.00
2018-10-12T12:14:07.603Z,99511.00
2018-10-12T12:16:43.100Z,99510.00
2018-10-12T12:19:18.768Z,99506.00
2018-10-12T12:21:50.218Z,99507.00
2018-10-12T12:24:26.239Z,99504.00
2018-10-12T12:26:58.149Z,99500.00
2018-10-12T12:29:29.977Z,99502.00
2018-10-12T12:32:01.854Z,99494.00
2018-10-12T12:34:33.911Z,99498.00
2018-10-12T12:37:06.478Z,99489.00
2018-10-12T12:39:38.546Z,99485.00
2018-10-12T12:42:10.439Z,99489.00
2018-10-12T12:44:42.076Z,99486.00
2018-10-12T12:47:13.534Z,99480.00
2018-10-12T12:49:45.056Z,99477.00
2018-10-12T12:52:16.922Z,99472.00
2018-10-12T12:54:49.143Z,99479.00
2018-10-12T12:57:21.221Z,99477.00
2018-10-12T12:59:52.785Z,99474.00
2018-10-12T13:02:27.195Z,99479.00
2018-10-12T13:04:58.717Z,99479.00
2018-10-12T13:07:30.758Z,99478.00
2018-10-12T13:10:02.680Z,99472.00
2018-10-12T13:12:34.265Z,99476.00
2018-10-12T13:15:06.412Z,99471.00
2018-10-12T13:17:38.061Z,99474.00
2018-10-12T13:20:09.850Z,99473.00
2018-10-12T13:22:41.400Z,99479.00
2018-10-12T13:25:13.397Z,99483.00
2018-10-12T13:27:44.955Z,99477.00
2018-10-12T13:30:16.589Z,99475.00
2018-10-12T13:32:48.257Z,99478.00
2018-10-12T13:35:20.230Z,99477.00
2018-10-12T13:37:51.843Z,99476.00
2018-10-12T13:40:23.771Z,99476.00
2018-10-12T13:42:55.914Z,99479.00
2018-10-12T13:45:27.440Z,99480.00
2018-10-12T13:48:05.843Z,99483.00
2018-10-12T13:50:37.563Z,99485.00
2018-10-12T13:53:09.630Z,99480.00
2018-10-12T13:55:47.712Z,99479.00
2018-10-12T14:00:55.249Z,99476.00
2018-10-12T14:03:26.787Z,99476.00
2018-10-12T14:05:58.463Z,99473.00
2018-10-12T14:08:30.052Z,99467.00
2018-10-12T14:11:01.842Z,99468.00
2018-10-12T14:13:33.764Z,99464.00
2018-10-12T14:16:06.478Z,99466.00
2018-10-12T14:18:38.023Z,99462.00
2018-10-12T14:21:09.643Z,99468.00
2018-10-12T14:23:41.191Z,99457.00
2018-10-12T14:26:13.500Z,99470.00
2018-10-12T14:28:45.655Z,99467.00
2018-10-12T14:31:17.900Z,99471.00
2018-10-12T14:33:49.562Z,99467.00
2018-10-12T14:36:21.212Z,99459.00
2018-10-12T14:38:54.088Z,99463.00
2018-10-12T14:41:25.578Z,99463.00
2018-10-12T14:43:57.397Z,99464.00
2018-10-12T14:46:29.597Z,99467.00
2018-10-12T14:49:01.161Z,99467.00
2018-10-12T14:51:33.124Z,99476.00
2018-10-12T14:54:05.658Z,99472.00
2018-10-12T14:56:37.308Z,99472.00
2018-10-12T14:59:08.987Z,99469.00
2018-10-12T15:01:40.835Z,99471.00
2018-10-12T15:04:13.002Z,99477.00
2018-10-12T15:06:44.813Z,99471.00
2018-10-12T15:09:16.624Z,99475.00
2018-10-12T15:11:48.959Z,99474.00
2018-10-12T15:14:35.962Z,99476.00
2018-10-12T15:17:08.378Z,99473.00
2018-10-12T15:19:41.250Z,99474.00
2018-10-12T15:22:13.612Z,99466.00
2018-10-12T15:24:45.449Z,99463.00
2018-10-12T15:27:17.593Z,99464.00
2018-10-12T15:29:49.685Z,99463.00
2018-10-12T15:36:23.224Z,99465.00
2018-10-12T15:38:56.170Z,99470.00
2018-10-12T15:41:28.273Z,99477.00
2018-10-12T15:44:00.059Z,99477.00
2018-10-12T15:46:34.396Z,99484.00
2018-10-12T15:51:48.098Z,99490.00
2018-10-12T15:54:20.555Z,99491.00
2018-10-12T15:59:29.321Z,99488.00
2018-10-12T16:02:00.880Z,99490.00
2018-10-12T16:04:32.625Z,99495.00
2018-10-12T16:07:05.275Z,99494.00
2018-10-12T16:09:37.058Z,99498.00
2018-10-12T16:12:09.228Z,99494.00
2018-10-12T16:14:40.909Z,99496.00
2018-10-12T16:17:12.935Z,99497.00
2018-10-12T16:19:44.606Z,99499.00
2018-10-12T16:22:16.358Z,99500.00
2018-10-12T16:25:05.006Z,99500.00
2018-10-12T16:27:36.965Z,99513.00
2018-10-12T16:30:09.207Z,99507.00
2018-10-12T16:32:41.006Z,99514.00
2018-10-12T16:35:13.826Z,99518.00
2018-10-12T16:37:52.851Z,99524.00
2018-10-12T16:40:25.027Z,99531.00
2018-10-12T16:42:56.915Z,99540.00
2018-10-12T16:45:28.820Z,99542.00
2018-10-12T16:48:00.733Z,99533.00
2018-10-12T16:50:33.052Z,99541.00
2018-10-12T16:53:04.806Z,99538.00
2018-10-12T16:55:37.032Z,99535.00
2018-10-12T16:58:09.705Z,99533.00
2018-10-12T17:00:41.500Z,99542.00
2018-10-12T17:03:13.893Z,99537.00
2018-10-12T17:05:45.660Z,99535.00
2018-10-12T17:08:17.688Z,99537.00
2018-10-12T17:10:49.734Z,99535.00
2018-10-12T17:13:21.506Z,99537.00
2018-10-12T17:15:53.453Z,99526.00
2018-10-12T17:18:25.544Z,99532.00
2018-10-12T17:20:57.657Z,99531.00
2018-10-12T17:23:30.194Z,99528.00
2018-10-12T17:26:02.296Z,99524.00
2018-10-12T17:28:35.497Z,99522.00
2018-10-12T17:33:45.027Z,99519.00
2018-10-12T17:36:17.861Z,99523.00
2018-10-12T17:38:49.831Z,99526.00
2018-10-12T17:41:23.191Z,99529.00
2018-10-12T17:43:55.883Z,99526.00
2018-10-12T17:46:28.816Z,99530.00
2018-10-12T17:49:01.461Z,99535.00
2018-10-12T17:54:47.694Z,99541.00
2018-10-12T17:57:23.000Z,99542.00
2018-10-12T17:59:55.128Z,99542.00
2018-10-12T18:02:27.199Z,99539.00
2018-10-12T18:04:59.264Z,99536.00
2018-10-12T18:07:31.594Z,99530.00
2018-10-12T18:10:03.809Z,99534.00
2018-10-12T18:15:13.663Z,99541.00
2018-10-12T18:17:45.863Z,99541.00
2018-10-12T18:20:18.073Z,99540.00
2018-10-12T18:22:50.175Z,99544.00
2018-10-12T18:25:22.159Z,99541.00
2018-10-12T18:27:54.068Z,99542.00
2018-10-12T18:30:26.238Z,99544.00
2018-10-12T18:32:58.938Z,99543.00
2018-10-12T18:35:32.024Z,99544.00
2018-10-12T18:38:04.208Z,99535.00
2018-10-12T18:40:36.555Z,99542.00
2018-10-12T18:43:08.475Z,99541.00
2018-10-12T18:45:41.076Z,99540.00
2018-10-12T18:48:13.382Z,99540.00
2018-10-12T18:50:46.676Z,99537.00
2018-10-12T18:53:19.198Z,99545.00
2018-10-12T18:55:51.303Z,99547.00
2018-10-12T19:01:04.817Z,99547.00
2018-10-12T19:06:14.327Z,99552.00
2018-10-12T19:08:47.212Z,99557.00
2018-10-12T19:13:55.138Z,99566.00
2018-10-12T19:16:28.120Z,99566.00
2018-10-12T19:19:00.847Z,99570.00
2018-10-12T19:21:32.475Z,99570.00
2018-10-12T19:24:05.668Z,99565.00
2018-10-12T19:26:38.968Z,99564.00
2018-10-12T19:29:11.141Z,99562.00
2018-10-12T19:31:42.957Z,99554.00
2018-10-12T19:34:15.370Z,99558.00
2018-10-12T19:36:47.430Z,99564.00
2018-10-12T19:39:19.706Z,99565.00
2018-10-12T19:41:51.728Z,99562.00
2018-10-12T19:47:00.052Z,99560.00
2018-10-12T19:52:09.223Z,99566.00
2018-10-12T19:54:50.797Z,99568.00
2018-10-12T19:57:23.709Z,99570.00
2018-10-12T19:59:56.966Z,99559.00
2018-10-12T20:02:29.177Z,99559.00
2018-10-12T20:05:02.129Z,99561.00
2018-10-12T20:07:34.655Z,99563.00
2018-10-12T20:10:09.187Z,99570.00
2018-10-12T20:12:41.552Z,99575.00
2018-10-12T20:15:14.504Z,99579.00
2018-10-12T20:17:46.852Z,99574.00
2018-10-12T20:20:20.256Z,99576.00
2018-10-12T20:22:53.200Z,99572.00
2018-10-12T20:25:26.273Z,99576.00
2018-10-12T20:27:59.067Z,99572.00
2018-10-12T20:30:31.443Z,99575.00
2018-10-12T20:33:03.501Z,99574.00
2018-10-12T20:35:35.989Z,99576.00
2018-10-12T20:38:08.294Z,99577.00
2018-10-12T20:40:41.208Z,99577.00
2018-10-12T20:43:13.846Z,99574.00
2018-10-12T20:45:46.251Z,99577.00
2018-10-12T20:48:18.837Z,99583.00
2018-10-12T20:50:51.081Z,99580.00
2018-10-12T20:53:22.902Z,99585.00
2018-10-12T20:55:55.758Z,99581.00
2018-10-12T20:58:27.760Z,99585.00
2018-10-12T21:01:00.319Z,99593.00
2018-10-12T21:03:32.801Z,99595.00
2018-10-12T21:06:05.063Z,99591.00
2018-10-12T21:08:37.287Z,99597.00
2018-10-12T21:11:09.545Z,99600.00
2018-10-12T21:13:42.126Z,99596.00
2018-10-12T21:16:14.561Z,99599.00
2018-10-12T21:18:46.966Z,99599.00
2018-10-12T21:21:19.014Z,99601.00
2018-10-12T21:23:51.286Z,99600.00
2018-10-12T21:26:23.729Z,99596.00
2018-10-12T21:28:55.841Z,99603.00
2018-10-12T21:31:28.194Z,99600.00
2018-10-12T21:34:00.388Z,99605.00
2018-10-12T21:36:32.556Z,99604.00
2018-10-12T21:39:05.785Z,99600.00
2018-10-12T21:41:37.807Z,99602.00
2018-10-12T21:44:10.255Z,99601.00
2018-10-12T21:46:43.205Z,99592.00
2018-10-12T21:49:15.380Z,99589.00
2018-10-12T21:54:24.472Z,99584.00
2018-10-12T21:56:56.623Z,99580.00
2018-10-12T21:59:29.264Z,99585.00
2018-10-12T22:02:01.871Z,99579.00
2018-10-12T22:04:34.849Z,99579.00
2018-10-12T22:07:06.966Z,99580.00
2018-10-12T22:09:39.380Z,99580.00
2018-10-12T22:12:11.724Z,99579.00
2018-10-12T22:14:43.799Z,99590.00
2018-10-12T22:17:15.766Z,99593.00
2018-10-12T22:19:48.155Z,99599.00
2018-10-12T22:22:20.116Z,99598.00
2018-10-12T22:24:52.432Z,99595.00
2018-10-12T22:27:24.532Z,99595.00
2018-10-12T22:29:56.187Z,99596.00
2018-10-12T22:32:29.038Z,99595.00
2018-10-12T22:35:01.200Z,99599.00
2018-10-12T22:37:33.178Z,99606.00
2018-10-12T22:40:05.607Z,99612.00
2018-10-12T22:42:37.775Z,99608.00
2018-10-12T22:47:48.513Z,99611.00
2018-10-12T22:50:20.749Z,99617.00
2018-10-12T22:52:52.833Z,99617.00
2018-10-12T22:55:25.308Z,99616.00
2018-10-12T22:58:01.774Z,99614.00
2018-10-12T23:00:34.891Z,99613.00
2018-10-12T23:03:08.989Z,99611.00
2018-10-12T23:05:40.969Z,99609.00
2018-10-12T23:08:13.815Z,99607.00
2018-10-12T23:10:46.819Z,99609.00
2018-10-12T23:13:19.100Z,99611.00
2018-10-12T23:15:50.965Z,99605.00
2018-10-12T23:18:23.208Z,99603.00
2018-10-12T23:20:55.288Z,99605.00
2018-10-12T23:23:27.893Z,99607.00
2018-10-12T23:25:59.747Z,99608.00
2018-10-12T23:28:32.510Z,99616.00
2018-10-12T23:31:04.575Z,99617.00
2018-10-12T23:34:06.748Z,99626.00
2018-10-12T23:36:38.953Z,99620.00
2018-10-12T23:39:11.291Z,99624.00
2018-10-12T23:41:43.399Z,99619.00
2018-10-12T23:44:15.391Z,99619.00
2018-10-12T23:46:47.741Z,99617.00
2018-10-12T23:49:19.886Z,99618.00
2018-10-12T23:51:53.242Z,99616.00
2018-10-12T23:57:01.910Z,99615.00
2018-10-12T23:59:34.181Z,99617.00
